Time;durP1;ratioP1;P1;durP2;ratioP2;P2;SDS_P1;SDS_P2;PMS_P1;PMS_P2;Temp;Humidity;BMP_temperature;BMP_pressure;BME280_temperature;BME280_humidity;BME280_pressure;Samples;Min_cycle;Max_cycle;Signal;HPM_P1;HPM_P2
2023/03/23 00:01:51;;;;;;;;;;;281.60;2278.40;;;;;;4934645;29;19970;-79
2023/03/23 00:04:18;;;;;;;;;;;256.70;2252.80;;;;;;4934821;29;19907;-80
2023/03/23 00:06:45;;;;;;;;;;;256.70;2252.80;;;;;;4931199;29;19939;-78
2023/03/23 00:09:17;;;;;;;45.72;24.88;;;256.40;2252.80;;;;;;4929801;29;19915;-79
2023/03/23 00:11:43;;;;;;;43.97;24.67;;;256.20;2252.80;;;;;;4927062;29;20028;-80
2023/03/23 00:14:16;;;;;;;44.22;24.00;;;;;;;;;;4931992;29;20087;-80
2023/03/23 00:16:42;;;;;;;42.67;24.58;;;;;;;;;;4923916;29;20071;-80
2023/03/23 00:19:12;;;;;;;43.10;24.30;;;;;;;;;;4936896;29;20044;-80
2023/03/23 00:21:39;;;;;;;45.22;24.83;;;;;;;;;;4932347;29;20032;-80
2023/03/23 00:24:10;;;;;;;47.63;24.63;;;;;;;;;;4938586;29;20036;-79
2023/03/23 00:26:39;;;;;;;47.35;26.13;;;;;;;;;;4934979;29;20032;-79
2023/03/23 00:29:15;;;;;;;44.47;25.40;;;;;;;;;;4894248;29;20037;-79
2023/03/23 00:31:46;;;;;;;49.17;24.95;;;;;;;;;;4917105;29;20028;-78
2023/03/23 00:34:18;;;;;;;46.53;24.48;;;256.30;2252.80;;;;;;4902944;29;20059;-78
2023/03/23 00:36:49;;;;;;;45.78;24.88;;;231.30;2252.80;;;;;;4915378;29;20066;-78
2023/03/23 00:39:17;;;;;;;43.35;23.40;;;231.30;2252.80;;;;;;4915947;29;20040;-79
2023/03/23 00:41:43;;;;;;;54.10;26.98;;;256.00;2252.80;;;;;;4917314;29;20028;-78
2023/03/23 00:44:09;;;;;;;54.25;28.20;;;231.20;2252.80;;;;;;4915874;29;20027;-79
2023/03/23 00:46:44;;;;;;;52.22;28.45;;;231.10;2252.80;;;;;;4918249;29;20119;-80
2023/03/23 00:49:12;;;;;;;54.53;27.45;;;231.00;2252.80;;;;;;4918561;29;20024;-79
2023/03/23 00:51:40;;;;;;;54.67;28.70;;;231.00;2252.80;;;;;;4899833;29;20115;-79
2023/03/23 00:54:08;;;;;;;64.18;29.52;;;231.00;2252.80;;;;;;4919895;29;20036;-79
2023/03/23 00:56:39;;;;;;;57.25;30.08;;;230.90;2252.80;;;;;;4919134;29;20048;-80
2023/03/23 00:59:05;;;;;;;68.05;32.80;;;231.00;2252.80;;;;;;4920749;29;20345;-79
2023/03/23 01:01:35;;;;;;;65.07;33.17;;;230.90;2252.80;;;;;;4920788;29;20047;-79
2023/03/23 01:04:03;;;;;;;74.13;33.05;;;230.80;2252.80;;;;;;4919864;29;20459;-79
2023/03/23 01:06:38;;;;;;;70.72;34.33;;;230.60;2252.80;;;;;;4904156;29;20123;-79
2023/03/23 01:09:14;;;;;;;68.25;34.10;;;230.50;2252.80;;;;;;4917360;29;20020;-80
2023/03/23 01:11:41;;;;;;;76.72;35.53;;;205.70;2252.80;;;;;;4919306;29;20119;-79
2023/03/23 01:14:09;;;;;;;74.50;35.90;;;205.50;2252.80;;;;;;4920486;29;20037;-79
2023/03/23 01:16:35;;;;;;;79.80;36.55;;;205.30;2252.80;;;;;;4919428;29;20048;-80
2023/03/23 01:19:02;;;;;;;86.55;39.25;;;205.20;2252.80;;;;;;4900311;29;20027;-80
2023/03/23 01:21:30;;;;;;;83.30;37.85;;;205.10;2252.80;;;;;;4916332;29;20087;-79
2023/03/23 01:24:01;;;;;;;78.65;39.22;;;205.00;2252.80;;;;;;4917064;29;20032;-79
2023/03/23 01:26:30;;;;;;;90.35;40.67;;;;;;;;;;4901206;29;20123;-79
2023/03/23 01:28:57;;;;;;;87.72;39.78;;;204.90;2252.80;;;;;;4902698;29;20068;-79
2023/03/23 01:31:25;;;;;;;94.30;38.75;;;180.10;2252.80;;;;;;4907811;29;20028;-79
2023/03/23 01:33:55;;;;;;;78.15;36.95;;;204.80;2252.80;;;;;;4922252;29;20029;-78
2023/03/23 01:36:28;;;;;;;71.95;33.05;;;205.00;2252.80;;;;;;4921734;29;20056;-79
2023/03/23 01:38:57;;;;;;;61.88;30.98;;;204.80;2252.80;;;;;;4920991;29;20493;-80
2023/03/23 01:41:35;;;;;;;63.22;31.63;;;204.80;2252.80;;;;;;4924048;29;20558;-79
2023/03/23 01:44:07;;;;;;;66.47;31.52;;;204.90;2252.80;;;;;;4904585;29;20040;-79
2023/03/23 01:46:35;;;;;;;67.10;32.83;;;205.00;2252.80;;;;;;4906281;29;20043;-79
2023/03/23 01:49:09;;;;;;;65.82;32.33;;;205.00;2252.80;;;;;;4917759;29;20120;-79
2023/03/23 01:51:53;;;;;;;66.97;32.50;;;205.10;2252.80;;;;;;4921601;29;20307;-79
2023/03/23 01:54:21;;;;;;;69.05;32.35;;;205.10;2252.80;;;;;;4921867;29;20028;-79
2023/03/23 01:57:06;;;;;;;65.50;32.40;;;205.00;2252.80;;;;;;4921731;29;20044;-79
2023/03/23 01:59:33;;;;;;;65.18;32.35;;;205.00;2252.80;;;;;;4905540;29;20028;-79
2023/03/23 02:02:05;;;;;;;65.40;33.08;;;205.00;2252.80;;;;;;4921966;29;20469;-78
2023/03/23 02:04:33;;;;;;;69.47;34.05;;;205.00;2252.80;;;;;;4902877;29;20476;-78
2023/03/23 02:07:01;;;;;;;67.00;32.35;;;205.00;2252.80;;;;;;4917957;29;20111;-78
2023/03/23 02:09:27;;;;;;;64.22;33.72;;;205.00;2252.80;;;;;;4920171;29;20099;-78
2023/03/23 02:11:54;;;;;;;67.20;34.88;;;205.00;2252.80;;;;;;4919133;29;20039;-78
2023/03/23 02:14:22;;;;;;;68.53;34.45;;;205.00;2252.80;;;;;;4918331;29;20036;-78
2023/03/23 02:16:54;;;;;;;67.43;34.35;;;205.10;2252.80;;;;;;4921860;29;20191;-79
2023/03/23 02:20:10;;;;;;;72.60;35.70;;;205.10;2252.80;;;;;;4923927;29;20155;-80
2023/03/23 02:23:12;;;;;;;72.90;35.80;;;205.00;2252.80;;;;;;4832985;29;20043;-79
2023/03/23 02:26:20;;;;;;;72.25;35.13;;;205.00;2252.80;;;;;;4839452;29;20065;-79
2023/03/23 02:29:25;;;;;;;70.05;35.15;;;205.00;2252.80;;;;;;4798822;29;20039;-79
2023/03/23 02:31:58;;;;;;;68.65;34.72;;;205.00;2252.80;;;;;;4755422;29;20047;-79
2023/03/23 02:34:45;;;;;;;66.40;34.20;;;205.00;2252.80;;;;;;4756057;30;20107;-79
2023/03/23 02:37:27;;;;;;;66.95;34.63;;;205.10;2252.80;;;;;;4753068;30;20059;-79
2023/03/23 02:40:06;;;;;;;67.93;34.28;;;205.10;2252.80;;;;;;4752502;30;20037;-80
2023/03/23 02:43:06;;;;;;;65.05;32.88;;;205.20;2252.80;;;;;;4746746;30;20048;-79
2023/03/23 02:45:45;;;;;;;62.47;31.77;;;205.20;2252.80;;;;;;4750584;30;20055;-79
2023/03/23 02:48:16;;;;;;;63.05;32.05;;;205.30;2252.80;;;;;;4758520;30;20025;-79
2023/03/23 02:51:03;;;;;;;67.50;32.20;;;205.30;2252.80;;;;;;4757257;30;20064;-78
2023/03/23 02:54:05;;;;;;;59.42;31.98;;;205.30;2252.80;;;;;;4753521;30;20044;-79
2023/03/23 03:00:25;;;;;;;57.85;30.85;;;205.40;2252.80;;;;;;4922095;23;20046;-79
2023/03/23 03:03:22;;;;;;;61.08;31.85;;;205.40;2252.80;;;;;;4953943;29;20048;-79
2023/03/23 03:06:36;;;;;;;60.15;31.23;;;205.40;2252.80;;;;;;4949007;29;20043;-79
2023/03/23 03:09:41;;;;;;;59.30;30.00;;;205.70;2252.80;;;;;;4896866;29;20110;-79
2023/03/23 03:12:45;;;;;;;56.33;30.38;;;205.60;2252.80;;;;;;4938574;29;20028;-79
2023/03/23 03:15:46;;;;;;;53.35;28.77;;;205.60;2252.80;;;;;;4917062;29;20035;-79
2023/03/23 03:18:30;;;;;;;54.42;29.35;;;205.40;2252.80;;;;;;4921014;29;20050;-79
2023/03/23 03:21:25;;;;;;;54.20;28.98;;;205.50;2252.80;;;;;;4937376;29;20025;-79
2023/03/23 03:24:14;;;;;;;51.60;29.45;;;205.60;2252.80;;;;;;4930106;23;20459;-79
2023/03/23 03:31:05;;;;;;;54.30;28.23;;;205.40;2252.80;;;;;;4940631;29;20044;-80
2023/03/23 03:33:50;;;;;;;50.13;27.50;;;205.40;2252.80;;;;;;4935570;29;20040;-78
2023/03/23 03:36:27;;;;;;;50.72;28.25;;;205.30;2252.80;;;;;;4849907;29;20053;-79
2023/03/23 03:39:12;;;;;;;50.80;28.48;;;205.60;2252.80;;;;;;4892990;29;20037;-79
2023/03/23 03:41:58;;;;;;;51.13;27.90;;;205.40;2252.80;;;;;;4913240;29;20044;-79
2023/03/23 03:44:41;;;;;;;60.85;34.28;;;205.40;2252.80;;;;;;4897709;29;20049;-78
2023/03/23 03:47:15;;;;;;;66.88;38.13;;;205.40;2252.80;;;;;;4869974;29;20038;-79
2023/03/23 03:49:51;;;;;;;69.85;44.65;;;205.50;2252.80;;;;;;4910696;29;20087;-79
2023/03/23 03:52:43;;;;;;;86.20;48.95;;;205.50;2252.80;;;;;;4882601;29;20041;-79
2023/03/23 03:55:17;;;;;;;89.03;53.20;;;205.50;2252.80;;;;;;4897916;29;20045;-79
2023/03/23 03:58:22;;;;;;;64.47;34.40;;;205.50;2252.80;;;;;;4906630;29;20033;-79
2023/03/23 04:00:53;;;;;;;65.93;34.08;;;205.40;2252.80;;;;;;4914021;29;20059;-79
2023/03/23 04:03:32;;;;;;;85.45;46.47;;;205.50;2252.80;;;;;;4897647;29;20041;-79
2023/03/23 04:06:13;;;;;;;124.78;76.80;;;205.50;2252.80;;;;;;4915436;29;20589;-79
2023/03/23 04:08:47;;;;;;;126.72;71.07;;;205.50;2252.80;;;;;;4887366;29;20051;-79
2023/03/23 04:11:37;;;;;;;90.93;47.13;;;205.40;2252.80;;;;;;4871331;29;20056;-79
2023/03/23 04:17:40;;;;;;;75.63;40.03;;;205.30;2252.80;;;;;;4863589;29;20056;-77
2023/03/23 04:20:12;;;;;;;73.88;39.08;;;205.20;2252.80;;;;;;4883362;29;20046;-78
2023/03/23 04:22:43;;;;;;;63.17;35.20;;;205.20;2252.80;;;;;;4846385;29;20026;-77
2023/03/23 04:25:11;;;;;;;63.05;32.92;;;205.10;2252.80;;;;;;4860282;29;20057;-79
2023/03/23 04:27:45;;;;;;;63.35;32.75;;;205.00;2252.80;;;;;;4896778;29;20037;-78
2023/03/23 04:30:15;;;;;;;60.80;32.45;;;205.00;2252.80;;;;;;4897169;29;20046;-78
2023/03/23 04:32:42;;;;;;;59.13;31.27;;;204.90;2252.80;;;;;;4896918;29;20037;-78
2023/03/23 04:35:13;;;;;;;58.35;31.10;;;204.80;2252.80;;;;;;4898022;29;20037;-77
2023/03/23 04:37:43;;;;;;;62.08;31.08;;;180.10;2252.80;;;;;;4890975;29;20039;-78
2023/03/23 04:40:14;;;;;;;61.15;31.92;;;180.00;2252.80;;;;;;4871369;29;20138;-78
2023/03/23 04:43:05;;;;;;;59.45;31.80;;;179.60;2252.80;;;;;;4887165;29;20037;-78
2023/03/23 04:45:33;;;;;;;61.60;31.83;;;179.90;2252.80;;;;;;4886032;29;20038;-78
2023/03/23 04:48:01;;;;;;;63.42;32.20;;;179.80;2252.80;;;;;;4873237;29;20037;-77
2023/03/23 04:50:30;;;;;;;60.45;32.58;;;179.70;2252.80;;;;;;4871089;29;20070;-77
2023/03/23 04:52:58;;;;;;;65.50;33.15;;;154.50;2252.80;;;;;;4877984;29;20073;-78
2023/03/23 04:55:35;;;;;;;61.05;33.22;;;179.70;2252.80;;;;;;4869704;29;20053;-78
2023/03/23 05:01:27;;;;;;;63.85;32.97;;;;;;;;;;4891534;29;20085;-79
2023/03/23 05:03:53;;;;;;;66.00;34.97;;;179.60;2252.80;;;;;;4904470;29;20068;-78
2023/03/23 05:06:31;;;;;;;68.60;35.00;;;179.30;2252.80;;;;;;4919982;29;20024;-78
2023/03/23 05:09:03;;;;;;;60.88;32.45;;;179.30;2252.80;;;;;;4918963;29;20041;-78
2023/03/23 05:11:34;;;;;;;61.70;32.53;;;179.30;2252.80;;;;;;4915153;29;20060;-79
2023/03/23 05:17:27;;;;;;;62.72;32.70;;;179.40;2252.80;;;;;;4913037;29;20108;-77
2023/03/23 05:19:53;;;;;;;66.15;31.92;;;179.50;2252.80;;;;;;4886721;29;20029;-77
2023/03/23 05:22:20;;;;;;;61.63;32.03;;;179.60;2252.80;;;;;;4890186;29;20109;-77
2023/03/23 05:24:47;;;;;;;66.00;32.45;;;179.70;2252.80;;;;;;4935011;29;20059;-78
2023/03/23 05:27:14;;;;;;;58.67;30.88;;;179.70;2252.80;;;;;;4914488;29;20033;-77
2023/03/23 05:30:01;;;;;;;60.20;31.95;;;179.80;2252.80;;;;;;4903259;29;20036;-77
2023/03/23 05:32:37;;;;;;;56.92;30.58;;;179.80;2252.80;;;;;;4939541;29;20042;-78
2023/03/23 05:35:29;;;;;;;56.00;30.92;;;179.80;2252.80;;;;;;4936293;29;20063;-78
2023/03/23 05:38:04;;;;;;;58.10;31.00;;;179.80;2252.80;;;;;;4919870;29;20016;-78
2023/03/23 05:40:37;;;;;;;53.15;30.05;;;179.90;2252.80;;;;;;4942527;29;20021;-78
2023/03/23 05:49:51;;;;;;;49.78;28.23;;;204.90;2252.80;;;;;;4933363;29;20023;-78
2023/03/23 05:52:20;;;;;;;47.78;26.60;;;205.20;2252.80;;;;;;4938521;23;20048;-78
2023/03/23 05:54:48;;;;;;;50.85;26.85;;;205.20;2252.80;;;;;;4910507;29;20091;-79
2023/03/23 05:57:18;;;;;;;42.33;24.67;;;205.30;2252.80;;;;;;4942674;29;20143;-78
2023/03/23 05:59:49;;;;;;;44.40;25.75;;;205.40;2252.80;;;;;;4926967;29;20040;-79
2023/03/23 06:02:17;;;;;;;45.45;25.13;;;205.50;2252.80;;;;;;4940978;29;20028;-79
2023/03/23 06:04:57;;;;;;;46.05;26.27;;;205.60;2252.80;;;;;;4939880;29;20040;-78
2023/03/23 06:07:27;;;;;;;44.92;25.60;;;205.60;2252.80;;;;;;4928042;29;20371;-79
2023/03/23 06:09:55;;;;;;;49.63;27.30;;;205.60;2252.80;;;;;;4901244;29;20045;-79
2023/03/23 06:12:21;;;;;;;47.55;25.98;;;205.70;2252.80;;;;;;4903962;29;20024;-79
2023/03/23 06:14:51;;;;;;;45.40;26.42;;;;;;;;;;4922253;29;20052;-79
2023/03/23 06:17:17;;;;;;;42.30;27.38;;;384.90;2304.00;;;;;;4920933;29;20040;-79
2023/03/23 06:19:55;;;;;;;45.85;27.30;;;;;;;;;;4891368;29;20037;-80
2023/03/23 06:22:20;;;;;;;40.35;25.95;;;512.20;1766.40;;;;;;4903068;29;20056;-79
2023/03/23 06:24:48;;;;;;;40.97;26.17;;;538.40;1510.40;;;;;;4920452;29;20423;-79
2023/03/23 06:27:20;;;;;;;49.30;28.13;;;564.10;1484.80;;;;;;4918232;29;20394;-79
2023/03/23 06:29:46;;;;;;;;;;;;;;;;;;4921885;29;20032;-79
2023/03/23 06:32:18;;;;;;;46.85;31.75;;;615.10;1254.40;;;;;;4902312;29;20049;-78
2023/03/23 06:53:37;;;;;;;30.23;20.95;;;640.80;1152.00;;;;;;5156476;23;20028;-81
2023/03/23 06:56:41;;;;;;;30.88;20.73;;;640.10;1177.60;;;;;;4960795;29;20051;-82
2023/03/23 07:02:57;;;;;;;29.55;20.73;;;615.10;1228.80;;;;;;4961703;29;20015;-81
2023/03/23 07:05:41;;;;;;;31.70;20.23;;;640.90;1177.60;;;;;;4908733;29;20031;-81
2023/03/23 07:08:30;;;;;;;27.10;18.27;;;640.80;1177.60;;;;;;4940735;29;20024;-81
2023/03/23 07:11:23;;;;;;;28.38;17.50;;;640.80;1177.60;;;;;;4924979;29;20040;-81
2023/03/23 07:14:43;;;;;;;27.02;16.73;;;665.70;1177.60;;;;;;4923215;29;20038;-82
2023/03/23 12:21:04;;;;;;;5.40;3.60;;;614.80;1075.20;;;;;;5461528;23;20047;-80
2023/03/23 19:29:40;;;;;;;;;;;384.40;1766.40;;;;;;1745305;23;20105;-80
